Eendracht — PDVN — position and weather

sailwx.info

Track history (hours):
 
Tides and Currents Weather Stations Pressure Air Temp Water Temp Dewpoint Dewpoint Depression Visibility Wind Speed Wind Dir Waves Ship Positions

Eendracht (Netherlands)

Last reported at 2018-Apr-27 08:31 UTC. Time now 2018-Apr-27 08:48 UTC.
Position N 51°56' E 004°12'.

Length 59 m; beam 12 m; draft 5 m.

Type: Sailing vessel. MMSI: 244543000.

Date/timePositionNaut miles runAvg speedWind from/ knotsBaromVisibWave heightAir tempDewpointWater temp
2018-Apr-27 08:31N 51°56' E 004°12'2 4.7
2018-Apr-27 08:00N 51°57' E 004°09'2 4.9
2018-Apr-27 07:30N 51°59' E 004°06'2 4.5
2018-Apr-27 07:00N 51°60' E 004°03'3 5.5
2018-Apr-27 06:31N 52°02' E 004°03'2 3.9
2018-Apr-27 06:00N 52°04' E 004°04'1 1.3
2018-Apr-27 05:30N 52°04' E 004°05'1 1.4
2018-Apr-27 05:00N 52°04' E 004°06'1 1.6
2018-Apr-27 04:30N 52°05' E 004°07'1 1.3
2018-Apr-27 04:00N 52°05' E 004°08'0 0.4
2018-Apr-27 03:30N 52°05' E 004°08'2 3.6
2018-Apr-27 03:00N 52°05' E 004°05'2 4.1
2018-Apr-27 02:30N 52°05' E 004°02'2 3.9
2018-Apr-27 02:00N 52°06' E 003°59'2 4.0
2018-Apr-27 01:30N 52°06' E 003°56'2 4.0
2018-Apr-27 01:00N 52°06' E 003°52'2 4.0
2018-Apr-27 00:30N 52°06' E 003°49'2 4.2
2018-Apr-27 00:00N 52°06' E 003°46'2 4.4
2018-Apr-26 23:30N 52°06' E 003°42'2 4.2
2018-Apr-26 23:00N 52°06' E 003°39'2 4.4
2018-Apr-26 22:29N 52°06' E 003°35'2 4.8
2018-Apr-26 22:00N 52°07' E 003°32'6 3.8
2018-Apr-26 20:33N 52°11' E 003°24'0 1.6
2018-Apr-26 20:15N 52°11' E 003°25'1 3.5
2018-Apr-26 20:00N 52°10' E 003°26'2 3.9
2018-Apr-26 19:30N 52°08' E 003°26'2 3.5
2018-Apr-26 18:57N 52°06' E 003°26'1 3.0
2018-Apr-26 18:29N 52°05' E 003°25'2 3.0
2018-Apr-26 17:59N 52°03' E 003°24'2 3.3
2018-Apr-26 17:30N 52°02' E 003°24'3 4.0
2018-Apr-26 16:51N 51°59' E 003°22'5 4.3
2018-Apr-26 15:44N 51°54' E 003°23'1 4.9
2018-Apr-26 15:28N 51°53' E 003°22'3 5.3
2018-Apr-26 14:59N 51°51' E 003°20'2 4.6
2018-Apr-26 14:28N 51°49' E 003°18'2 4.5
2018-Apr-26 13:55N 51°46' E 003°17'2 5.1
2018-Apr-26 13:27N 51°44' E 003°16'2 5.1
2018-Apr-26 13:00N 51°42' E 003°15'3 5.5
2018-Apr-26 12:29N 51°39' E 003°13'3 5.9
2018-Apr-26 12:00N 51°37' E 003°12'3 6.7
2018-Apr-26 11:30N 51°33' E 003°10'4 7.0
2018-Apr-26 10:59N 51°30' E 003°07'3 6.6
2018-Apr-26 10:29N 51°28' E 003°03'3 6.2
2018-Apr-26 09:59N 51°26' E 003°00'3 6.2
2018-Apr-26 09:30N 51°23' E 002°57'3 6.1
2018-Apr-26 09:00N 51°21' E 002°54'1 2.2
2018-Apr-26 08:30N 51°20' E 002°54'2 4.8
2018-Apr-26 08:00N 51°18' E 002°52'2 4.0
2018-Apr-26 07:30N 51°16' E 002°53'2 3.1
2018-Apr-26 07:00N 51°15' E 002°55'1 2.4
2018-Apr-26 06:30N 51°14' E 002°56'0 0.2
2018-Apr-26 06:00N 51°13' E 002°56'0 0.0
2018-Apr-26 05:30N 51°13' E 002°56'0 0.0
2018-Apr-26 05:00N 51°13' E 002°56'0 0.0
2018-Apr-26 04:30N 51°13' E 002°56'0 0.0
2018-Apr-26 04:00N 51°13' E 002°56'0 0.0
2018-Apr-26 03:24N 51°13' E 002°56'0 0.0
2018-Apr-26 03:00N 51°13' E 002°56'0 0.0
2018-Apr-26 02:30N 51°13' E 002°56'0 0.0
2018-Apr-26 02:00N 51°13' E 002°56'0 0.0
2018-Apr-26 01:27N 51°13' E 002°56'0 0.0
2018-Apr-26 01:00N 51°13' E 002°56'0 0.0
2018-Apr-26 00:30N 51°13' E 002°56'0 0.0
2018-Apr-26 00:00N 51°13' E 002°56'0 0.0
2018-Apr-25 23:30N 51°13' E 002°56'0 0.0
2018-Apr-25 22:57N 51°13' E 002°56'0 0.0
2018-Apr-25 22:30N 51°13' E 002°56'0 0.0
2018-Apr-25 22:00N 51°13' E 002°56'0 0.0
2018-Apr-25 21:27N 51°13' E 002°56'0 0.0
2018-Apr-25 21:00N 51°13' E 002°56'0 0.0
2018-Apr-25 20:29N 51°13' E 002°56'0 0.0
2018-Apr-25 20:00N 51°13' E 002°56'0 0.0
2018-Apr-25 19:29N 51°13' E 002°56'0 0.0
2018-Apr-25 18:59N 51°13' E 002°56'0 0.0
2018-Apr-25 18:29N 51°13' E 002°56'0 0.0
2018-Apr-25 17:59N 51°13' E 002°56'0 0.0
2018-Apr-25 17:29N 51°13' E 002°56'0 0.0
2018-Apr-25 16:59N 51°13' E 002°56'0 0.0
2018-Apr-25 16:29N 51°13' E 002°56'0 0.0
2018-Apr-25 15:59N 51°13' E 002°56'0 0.0
2018-Apr-25 15:29N 51°13' E 002°56'0 0.0
2018-Apr-25 14:59N 51°13' E 002°56'0 0.0
2018-Apr-25 14:29N 51°13' E 002°56'0 0.0
2018-Apr-25 13:59N 51°13' E 002°56'0 0.0
2018-Apr-25 13:29N 51°13' E 002°56'0 0.0
2018-Apr-25 12:59N 51°13' E 002°56'0 0.0
2018-Apr-25 12:29N 51°13' E 002°56'0 0.0
2018-Apr-25 11:59N 51°13' E 002°56'0 0.0
2018-Apr-25 11:30N 51°13' E 002°56'0 0.7
2018-Apr-25 11:01N 51°14' E 002°56'2 4.4
2018-Apr-25 10:31N 51°16' E 002°54'2 4.3
2018-Apr-25 10:00N 51°17' E 002°52'1 2.3
2018-Apr-25 09:31N 51°18' E 002°51'3 6.8
2018-Apr-25 09:00N 51°22' E 002°49'3 6.7
2018-Apr-25 08:29N 51°25' E 002°48'3 6.6
2018-Apr-25 07:59N 51°28' E 002°46'3 6.4
2018-Apr-25 07:29N 51°31' E 002°44'3 6.2
2018-Apr-25 07:00N 51°34' E 002°42'3 5.9
2018-Apr-25 06:30N 51°37' E 002°41'3 6.2
2018-Apr-25 05:58N 51°40' E 002°39'4 6.9
2018-Apr-25 05:23N 51°44' E 002°38'3 6.6
2018-Apr-25 04:53N 51°46' E 002°35'4 6.6
2018-Apr-25 04:21N 51°49' E 002°31'43 3.3
2018-Apr-24 15:17N 52°32' E 002°19'4 7.5
2018-Apr-24 14:43N 52°34' E 002°13'2 7.5
2018-Apr-24 14:31N 52°35' E 002°12'4 7.8
2018-Apr-24 14:01N 52°39' E 002°08'4 7.7
2018-Apr-24 13:30N 52°41' E 002°04'3 6.6
2018-Apr-24 13:00N 52°44' E 002°00'3 5.3
2018-Apr-24 12:31N 52°46' E 001°57'1 2.4
2018-Apr-24 12:00N 52°47' E 001°56'2 5.0
2018-Apr-24 11:31N 52°49' E 001°54'2 3.5
2018-Apr-24 11:00N 52°51' E 001°53'2 3.7
2018-Apr-24 10:30N 52°52' E 001°52'2 3.6
2018-Apr-24 10:00N 52°54' E 001°53'2 3.5
2018-Apr-24 09:31N 52°56' E 001°53'1 1.2
2018-Apr-24 09:01N 52°57' E 001°53'1 2.3
2018-Apr-24 08:30N 52°58' E 001°51'1 2.5
2018-Apr-24 08:00N 52°58' E 001°50'1 1.9
2018-Apr-24 07:31N 52°59' E 001°50'1 2.9
2018-Apr-24 07:01N 53°01' E 001°49'2 3.8
2018-Apr-24 06:30N 53°03' E 001°48'1 1.3
2018-Apr-24 06:01N 53°03' E 001°49'2 4.8
2018-Apr-24 05:31N 53°01' E 001°51'2 3.7
2018-Apr-24 05:01N 53°00' E 001°53'2 4.3
2018-Apr-24 04:31N 52°59' E 001°56'3 5.1
2018-Apr-24 04:01N 52°57' E 001°59'2 4.7
2018-Apr-24 03:30N 52°55' E 002°02'3 5.0
2018-Apr-24 03:00N 52°53' E 002°05'3 5.1
2018-Apr-24 02:31N 52°52' E 002°08'2 3.3
2018-Apr-24 02:01N 52°50' E 002°10'2 4.0
2018-Apr-24 01:26N 52°49' E 002°12'41 7.7
2018-Apr-23 20:08N 52°25' E 003°06'1 8.2
2018-Apr-23 19:59N 52°24' E 003°08'4 8.4
2018-Apr-23 19:30N 52°22' E 003°14'4 8.2
2018-Apr-23 18:58N 52°19' E 003°19'6 7.9
2018-Apr-23 18:16N 52°14' E 003°23'2 6.4
2018-Apr-23 18:00N 52°13' E 003°26'3 6.4
2018-Apr-23 17:30N 52°11' E 003°30'3 6.1
2018-Apr-23 17:01N 52°09' E 003°33'3 6.8
2018-Apr-23 16:30N 52°07' E 003°38'3 6.6
2018-Apr-23 16:00N 52°06' E 003°43'4 7.2
2018-Apr-23 15:31N 52°04' E 003°48'3 6.9
2018-Apr-23 15:01N 52°04' E 003°54'3 6.0
2018-Apr-23 14:31N 52°03' E 003°58'2 3.6
2018-Apr-23 14:01N 52°02' E 004°01'1 2.1
2018-Apr-23 13:30N 52°02' E 004°03'3 5.3
2018-Apr-23 13:01N 51°59' E 004°04'4 7.4
2018-Apr-23 12:30N 51°58' E 004°09'4 8.0
2018-Apr-23 12:01N 51°55' E 004°14'4 7.1
2018-Apr-23 11:31N 51°54' E 004°19'3 6.1
2018-Apr-23 11:00N 51°54' E 004°24'2 3.9
2018-Apr-23 10:29N 51°54' E 004°28'0 0.0
2018-Apr-23 09:58N 51°54' E 004°28'0 0.0
2018-Apr-23 09:29N 51°54' E 004°28'0 0.0
2018-Apr-23 08:59N 51°54' E 004°28'0 0.0
2018-Apr-23 08:29N 51°54' E 004°28'0 0.0
2018-Apr-23 07:59N 51°54' E 004°28'0 0.0
2018-Apr-23 07:29N 51°54' E 004°28'0 0.0
2018-Apr-23 06:59N 51°54' E 004°28'0 0.0
2018-Apr-23 06:28N 51°54' E 004°28'0 0.0
2018-Apr-23 05:58N 51°54' E 004°28'0 0.0
2018-Apr-23 05:29N 51°54' E 004°28'0 0.0
2018-Apr-23 04:53N 51°54' E 004°28'0 0.0
2018-Apr-23 04:28N 51°54' E 004°28'0 0.0
2018-Apr-23 03:59N 51°54' E 004°28'0 0.0
2018-Apr-23 03:28N 51°54' E 004°28'0 0.0
2018-Apr-23 02:58N 51°54' E 004°28'0 0.0
2018-Apr-23 02:28N 51°54' E 004°28'0 0.0
2018-Apr-23 01:58N 51°54' E 004°28'0 0.0
2018-Apr-23 01:31N 51°54' E 004°28'0 0.0
2018-Apr-23 01:01N 51°54' E 004°28'0 0.0
2018-Apr-23 00:30N 51°54' E 004°28'0 0.0
2018-Apr-23 00:00N 51°54' E 004°28'0 0.0
2018-Apr-22 23:30N 51°54' E 004°28'0 0.0
2018-Apr-22 23:00N 51°54' E 004°28'0 0.0
2018-Apr-22 22:30N 51°54' E 004°28'0 0.0
2018-Apr-22 22:00N 51°54' E 004°28'0 0.0
2018-Apr-22 21:30N 51°54' E 004°28'0 0.0
2018-Apr-22 21:00N 51°54' E 004°28'0 0.0
2018-Apr-22 20:30N 51°54' E 004°28'0 0.0
2018-Apr-22 20:00N 51°54' E 004°28'0 0.0
2018-Apr-22 19:30N 51°54' E 004°28'0 0.0
2018-Apr-22 18:55N 51°54' E 004°28'0 0.0
2018-Apr-22 18:30N 51°54' E 004°28'0 0.0
2018-Apr-22 17:58N 51°54' E 004°28'0 0.0
2018-Apr-22 17:27N 51°54' E 004°28'0 0.0
2018-Apr-22 17:00N 51°54' E 004°28'0 0.0
2018-Apr-22 16:27N 51°54' E 004°28'0 0.0
2018-Apr-22 16:00N 51°54' E 004°28'0 0.0
2018-Apr-22 15:30N 51°54' E 004°28'0 0.0
2018-Apr-22 14:58N 51°54' E 004°28'0 0.0
2018-Apr-22 14:28N 51°54' E 004°28'0 0.0
2018-Apr-22 14:00N 51°54' E 004°28'0 0.0
2018-Apr-22 13:30N 51°54' E 004°28'0 0.0
2018-Apr-22 13:00N 51°54' E 004°28'0 0.0
2018-Apr-22 12:30N 51°54' E 004°28'0 0.0
2018-Apr-22 12:00N 51°54' E 004°28'0 0.0
2018-Apr-22 11:30N 51°54' E 004°28'0 0.0
2018-Apr-22 11:00N 51°54' E 004°28'0 0.0
2018-Apr-22 10:30N 51°54' E 004°28'2 3.3
2018-Apr-22 10:00N 51°54' E 004°25'2 4.8
2018-Apr-22 09:30N 51°54' E 004°21'1 1.8
2018-Apr-22 09:00N 51°54' E 004°23'3 5.9
2018-Apr-22 08:30N 51°54' E 004°27'0 0.3
2018-Apr-22 07:59N 51°54' E 004°28'0 0.0
2018-Apr-22 07:30N 51°54' E 004°28'0 0.0
2018-Apr-22 06:59N 51°54' E 004°28'0 0.0
2018-Apr-22 06:27N 51°54' E 004°28'0 0.1
2018-Apr-22 05:59N 51°54' E 004°28'0 0.0
2018-Apr-22 05:29N 51°54' E 004°28'0 0.0
2018-Apr-22 04:59N 51°54' E 004°28'0 0.0
2018-Apr-22 04:29N 51°54' E 004°28'0 0.0
2018-Apr-22 03:59N 51°54' E 004°28'0 0.0
2018-Apr-22 03:29N 51°54' E 004°28'0 0.0
2018-Apr-22 02:59N 51°54' E 004°28'0 0.0
2018-Apr-22 02:29N 51°54' E 004°28'0 0.0
2018-Apr-22 01:59N 51°54' E 004°28'0 0.0
2018-Apr-22 01:29N 51°54' E 004°28'0 0.0
2018-Apr-22 00:59N 51°54' E 004°28'0 0.0
2018-Apr-22 00:26N 51°54' E 004°28'0 0.0
2018-Apr-21 23:59N 51°54' E 004°28'0 0.0
2018-Apr-21 23:29N 51°54' E 004°28'0 0.0
2018-Apr-21 22:59N 51°54' E 004°28'0 0.0
2018-Apr-21 22:29N 51°54' E 004°28'0 0.0
2018-Apr-21 21:59N 51°54' E 004°28'0 0.0
2018-Apr-21 21:30N 51°54' E 004°28'0 0.0
2018-Apr-21 20:59N 51°54' E 004°28'0 0.0
2018-Apr-21 20:29N 51°54' E 004°28'0 0.0
2018-Apr-21 19:59N 51°54' E 004°28'0 0.0
2018-Apr-21 19:27N 51°54' E 004°28'0 0.0
2018-Apr-21 18:59N 51°54' E 004°28'0 0.0
2018-Apr-21 18:29N 51°54' E 004°28'0 0.0
2018-Apr-21 17:59N 51°54' E 004°28'0 0.0
2018-Apr-21 17:29N 51°54' E 004°28'0 0.0
2018-Apr-21 16:59N 51°54' E 004°28'0 0.0
2018-Apr-21 16:29N 51°54' E 004°28'0 0.0
2018-Apr-21 15:59N 51°54' E 004°28'0 0.0
2018-Apr-21 15:29N 51°54' E 004°28'0 0.0
2018-Apr-21 14:59N 51°54' E 004°28'0 0.0
2018-Apr-21 14:29N 51°54' E 004°28'0 0.1
2018-Apr-21 14:00N 51°54' E 004°28'2 4.6
2018-Apr-21 13:30N 51°54' E 004°24'3 5.2
2018-Apr-21 13:00N 51°54' E 004°20'3 5.3
2018-Apr-21 12:30N 51°54' E 004°16'3 5.1
2018-Apr-21 12:00N 51°56' E 004°12'2 4.6
2018-Apr-21 11:30N 51°57' E 004°09'2 4.0
2018-Apr-21 11:00N 51°59' E 004°07'2 4.2
2018-Apr-21 10:30N 51°59' E 004°04'3 5.9
2018-Apr-21 10:00N 52°02' E 004°04'4 8.0
2018-Apr-21 09:30N 52°06' E 004°05'2 4.3
2018-Apr-21 09:01N 52°08' E 004°03'1 2.9
2018-Apr-21 08:30N 52°09' E 004°01'1 2.7
2018-Apr-21 08:00N 52°10' E 004°00'1 2.4
2018-Apr-21 07:30N 52°11' E 003°59'1 2.2
2018-Apr-21 07:00N 52°12' E 003°58'1 1.7
2018-Apr-21 06:30N 52°13' E 003°57'1 1.5
2018-Apr-21 06:00N 52°13' E 003°56'0 0.8
2018-Apr-21 05:30N 52°13' E 003°56'0 0.6
2018-Apr-21 05:00N 52°13' E 003°56'1 1.0
2018-Apr-21 04:30N 52°13' E 003°57'1 1.5
2018-Apr-21 04:00N 52°14' E 003°58'1 1.9
2018-Apr-21 03:30N 52°14' E 003°60'2 3.1
2018-Apr-21 03:00N 52°15' E 004°01'2 3.8
2018-Apr-21 02:30N 52°16' E 004°04'2 3.6
2018-Apr-21 02:00N 52°18' E 004°06'2 3.0
2018-Apr-21 01:30N 52°19' E 004°08'2 3.6
2018-Apr-21 01:00N 52°20' E 004°10'2 4.0
2018-Apr-21 00:30N 52°21' E 004°12'2 4.1
2018-Apr-21 00:00N 52°23' E 004°14'2 3.7
2018-Apr-20 23:30N 52°24' E 004°16'2 4.0
2018-Apr-20 23:00N 52°26' E 004°19'2 4.7
2018-Apr-20 22:30N 52°28' E 004°21'2 4.4
2018-Apr-20 22:00N 52°30' E 004°23'1 2.5
2018-Apr-20 21:30N 52°31' E 004°24'1 1.6
2018-Apr-20 21:00N 52°31' E 004°24'1 2.5
2018-Apr-20 20:30N 52°32' E 004°25'1 2.3
2018-Apr-20 20:00N 52°33' E 004°26'1 2.1
2018-Apr-20 19:31N 52°34' E 004°27'1 2.0
2018-Apr-20 19:00N 52°35' E 004°29'2 3.2
2018-Apr-20 18:30N 52°36' E 004°29'2 3.0
2018-Apr-20 18:00N 52°38' E 004°29'1 2.9
2018-Apr-20 17:30N 52°39' E 004°29'2 3.4
2018-Apr-20 17:00N 52°41' E 004°28'2 4.0
2018-Apr-20 16:30N 52°43' E 004°28'2 4.5
2018-Apr-20 16:00N 52°45' E 004°26'3 5.0
2018-Apr-20 15:30N 52°47' E 004°25'3 5.2
2018-Apr-20 15:00N 52°50' E 004°25'3 5.5
2018-Apr-20 14:30N 52°53' E 004°26'3 5.5
2018-Apr-20 14:00N 52°55' E 004°29'3 5.4
2018-Apr-20 13:30N 52°57' E 004°32'3 5.4
2018-Apr-20 13:00N 52°59' E 004°34'3 5.3
2018-Apr-20 12:30N 53°02' E 004°35'3 5.0
2018-Apr-20 12:00N 53°04' E 004°37'2 4.9
2018-Apr-20 11:30N 53°06' E 004°39'3 5.5
2018-Apr-20 10:59N 53°09' E 004°41'3 5.5
2018-Apr-20 10:30N 53°11' E 004°43'3 5.2
2018-Apr-20 10:00N 53°13' E 004°45'3 5.1
2018-Apr-20 09:30N 53°15' E 004°49'2 4.8
2018-Apr-20 09:00N 53°16' E 004°52'2 4.7
2018-Apr-20 08:30N 53°18' E 004°55'1 1.3
2018-Apr-20 08:00N 53°18' E 004°55'0 0.3
2018-Apr-20 07:30N 53°18' E 004°55'2 4.0
2018-Apr-20 07:00N 53°19' E 004°58'2 3.4
2018-Apr-20 06:30N 53°19' E 005°01'2 3.6
2018-Apr-20 06:00N 53°19' E 005°04'3 5.5
2018-Apr-20 05:30N 53°19' E 005°08'3 5.8
2018-Apr-20 05:00N 53°17' E 005°10'3 6.2
2018-Apr-20 04:30N 53°14' E 005°12'4 7.4
2018-Apr-20 04:01N 53°13' E 005°18'3 6.4
2018-Apr-20 03:30N 53°11' E 005°23'1 2.7
2018-Apr-20 03:00N 53°11' E 005°25'0 0.0
2018-Apr-20 02:30N 53°11' E 005°25'0 0.0
2018-Apr-20 02:00N 53°11' E 005°25'0 0.0
2018-Apr-20 01:29N 53°11' E 005°25'0 0.0
2018-Apr-20 00:59N 53°11' E 005°25'0 0.0
2018-Apr-20 00:29N 53°11' E 005°25'0 0.0
2018-Apr-19 23:59N 53°11' E 005°25'0 0.0
2018-Apr-19 23:29N 53°11' E 005°25'0 0.0
2018-Apr-19 22:59N 53°11' E 005°25'0 0.0
2018-Apr-19 22:29N 53°11' E 005°25'0 0.0
2018-Apr-19 21:59N 53°11' E 005°25'0 0.0
2018-Apr-19 21:29N 53°11' E 005°25'0 0.0
2018-Apr-19 20:59N 53°11' E 005°25'0 0.0
2018-Apr-19 20:29N 53°11' E 005°25'0 0.0
2018-Apr-19 19:59N 53°11' E 005°25'0 0.0
2018-Apr-19 19:29N 53°11' E 005°25'0 0.0
2018-Apr-19 18:59N 53°11' E 005°25'0 0.0
2018-Apr-19 18:29N 53°11' E 005°25'0 0.0
2018-Apr-19 17:59N 53°11' E 005°25'0 0.0
2018-Apr-19 17:29N 53°11' E 005°25'0 0.0
2018-Apr-19 16:59N 53°11' E 005°25'0 0.0
2018-Apr-19 16:29N 53°11' E 005°25'0 0.0
2018-Apr-19 15:59N 53°11' E 005°25'0 0.0
2018-Apr-19 15:29N 53°11' E 005°25'0 0.0
2018-Apr-19 14:59N 53°11' E 005°25'0 0.0
2018-Apr-19 14:29N 53°11' E 005°25'0 0.0
2018-Apr-19 14:01N 53°11' E 005°25'2 4.6
2018-Apr-19 13:30N 53°11' E 005°21'2 4.8
2018-Apr-19 13:00N 53°13' E 005°18'2 5.0
2018-Apr-19 12:30N 53°14' E 005°14'3 5.0
2018-Apr-19 12:00N 53°15' E 005°10'3 5.9
2018-Apr-19 11:30N 53°18' E 005°10'3 5.5
2018-Apr-19 11:00N 53°19' E 005°07'3 6.8
2018-Apr-19 10:30N 53°19' E 005°01'3 5.4
2018-Apr-19 10:00N 53°18' E 004°57'2 3.1
2018-Apr-19 09:30N 53°17' E 004°55'2 3.7
2018-Apr-19 09:01N 53°17' E 004°52'2 4.2
2018-Apr-19 08:30N 53°16' E 004°49'3 6.8
2018-Apr-19 08:00N 53°18' E 004°53'3 6.6
2018-Apr-19 07:30N 53°21' E 004°56'3 5.8
2018-Apr-19 07:00N 53°23' E 004°60'2 3.9
2018-Apr-19 06:30N 53°24' E 005°02'2 3.1
2018-Apr-19 06:00N 53°25' E 005°04'1 1.6
2018-Apr-19 05:30N 53°25' E 005°03'3 5.9
2018-Apr-19 05:00N 53°23' E 004°59'3 5.8
2018-Apr-19 04:30N 53°20' E 004°56'3 5.2
2018-Apr-19 04:00N 53°18' E 004°53'3 5.8
2018-Apr-19 03:30N 53°17' E 004°49'2 4.5
2018-Apr-19 03:00N 53°15' E 004°46'2 4.1
2018-Apr-19 02:29N 53°14' E 004°44'2 3.7
2018-Apr-19 01:59N 53°13' E 004°42'2 3.5
2018-Apr-19 01:30N 53°11' E 004°40'2 4.3
2018-Apr-19 01:00N 53°09' E 004°38'2 4.1
2018-Apr-19 00:30N 53°07' E 004°37'2 3.7
2018-Apr-19 00:00N 53°06' E 004°36'2 3.9
2018-Apr-18 23:30N 53°04' E 004°35'3 5.2
2018-Apr-18 23:00N 53°02' E 004°33'3 5.6
2018-Apr-18 22:30N 52°59' E 004°30'2 4.8
2018-Apr-18 22:00N 52°57' E 004°29'3 5.8
2018-Apr-18 21:30N 52°54' E 004°28'3 5.5
2018-Apr-18 21:00N 52°51' E 004°28'3 5.5
2018-Apr-18 20:30N 52°49' E 004°27'2 4.8
2018-Apr-18 20:00N 52°46' E 004°27'2 3.7
2018-Apr-18 19:30N 52°44' E 004°26'2 3.8
2018-Apr-18 19:00N 52°43' E 004°25'2 4.4
2018-Apr-18 18:30N 52°41' E 004°24'2 4.8
2018-Apr-18 18:00N 52°39' E 004°22'2 4.8
2018-Apr-18 17:30N 52°36' E 004°21'3 5.8
2018-Apr-18 17:01N 52°33' E 004°21'3 6.5
2018-Apr-18 16:30N 52°30' E 004°22'3 5.2
2018-Apr-18 16:01N 52°28' E 004°20'4 7.2
2018-Apr-18 15:30N 52°24' E 004°18'3 6.9
2018-Apr-18 15:00N 52°22' E 004°14'3 6.7
2018-Apr-18 14:31N 52°18' E 004°13'3 5.9
2018-Apr-18 14:00N 52°16' E 004°10'3 5.2
2018-Apr-18 13:30N 52°14' E 004°08'3 5.2
2018-Apr-18 13:00N 52°11' E 004°06'0 0.6
2018-Apr-18 12:30N 52°11' E 004°05'1 1.8
2018-Apr-18 12:00N 52°11' E 004°04'3 5.3
2018-Apr-18 11:30N 52°08' E 004°02'3 5.2
2018-Apr-18 11:01N 52°06' E 004°03'2 4.4
2018-Apr-18 10:30N 52°04' E 004°02'1 2.1
2018-Apr-18 10:00N 52°03' E 004°02'1 1.6
2018-Apr-18 09:30N 52°02' E 004°02'3 5.5
2018-Apr-18 09:00N 51°59' E 004°04'4 8.5
2018-Apr-18 08:30N 51°57' E 004°10'4 8.8
2018-Apr-18 08:00N 51°55' E 004°15'4 7.9
2018-Apr-18 07:30N 51°54' E 004°22'4 7.2
2018-Apr-18 07:00N 51°54' E 004°28'0 0.1
2018-Apr-18 06:25N 51°54' E 004°28'0 0.0
2018-Apr-18 05:59N 51°54' E 004°28'0 0.0
2018-Apr-18 05:28N 51°54' E 004°28'0 0.0
2018-Apr-18 04:59N 51°54' E 004°28'0 0.0
2018-Apr-18 04:29N 51°54' E 004°28'0 0.0
2018-Apr-18 03:58N 51°54' E 004°28'0 0.0
2018-Apr-18 03:28N 51°54' E 004°28'0 0.0
2018-Apr-18 02:58N 51°54' E 004°28'0 0.0
2018-Apr-18 02:28N 51°54' E 004°28'0 0.0
2018-Apr-18 01:58N 51°54' E 004°28'0 0.0
2018-Apr-18 01:28N 51°54' E 004°28'0 0.0
2018-Apr-18 00:55N 51°54' E 004°28'0 0.0
2018-Apr-18 00:28N 51°54' E 004°28'0 0.0
2018-Apr-17 23:58N 51°54' E 004°28'0 0.0
2018-Apr-17 23:28N 51°54' E 004°28'0 0.1
2018-Apr-17 22:58N 51°54' E 004°28'0 0.0
2018-Apr-17 22:28N 51°54' E 004°28'0 0.0
2018-Apr-17 21:58N 51°54' E 004°28'0 0.0
2018-Apr-17 21:28N 51°54' E 004°28'0 0.0
2018-Apr-17 20:58N 51°54' E 004°28'0 0.0
2018-Apr-17 20:28N 51°54' E 004°28'0 0.0
2018-Apr-17 19:58N 51°54' E 004°28'0 0.0
2018-Apr-17 19:28N 51°54' E 004°28'0 0.0
2018-Apr-17 18:58N 51°54' E 004°28'0 0.0
2018-Apr-17 18:28N 51°54' E 004°28'0 0.0
2018-Apr-17 17:58N 51°54' E 004°28'0 0.0
2018-Apr-17 17:28N 51°54' E 004°28'0 0.0
2018-Apr-17 16:58N 51°54' E 004°28'0 0.0
2018-Apr-17 16:28N 51°54' E 004°28'0 0.0
2018-Apr-17 15:58N 51°54' E 004°28'0 0.0
2018-Apr-17 15:28N 51°54' E 004°28'0 0.0
2018-Apr-17 14:58N 51°54' E 004°28'0 0.0
2018-Apr-17 14:28N 51°54' E 004°28'0 0.0
2018-Apr-17 13:58N 51°54' E 004°28'0 0.0
2018-Apr-17 13:30N 51°54' E 004°28'3 5.4
2018-Apr-17 13:00N 51°54' E 004°23'3 6.7
2018-Apr-17 12:30N 51°54' E 004°18'3 5.6
2018-Apr-17 12:00N 51°55' E 004°14'3 5.5
2018-Apr-17 11:30N 51°57' E 004°11'3 5.0
2018-Apr-17 11:00N 51°58' E 004°07'2 3.6
2018-Apr-17 10:30N 51°59' E 004°05'2 3.4
2018-Apr-17 10:00N 51°60' E 004°02'1 2.8
2018-Apr-17 09:30N 52°01' E 004°01'1 2.7
2018-Apr-17 09:00N 52°02' E 003°60'  
Track history (hours):
 
Tides and Currents Weather Stations Pressure Air Temp Water Temp Dewpoint Dewpoint Depression Visibility Wind Speed Wind Dir Waves Ship Positions

Eendracht (Netherlands)

Last reported at 2018-Apr-27 08:31 UTC. Time now 2018-Apr-27 08:48 UTC.
Position N 51°56' E 004°12'.

Length 59 m; beam 12 m; draft 5 m.

Type: Sailing vessel. MMSI: 244543000.

Date/timePositionNaut miles runAvg speedWind from/ knotsBaromVisibWave heightAir tempDewpointWater temp
2018-Apr-27 08:31N 51°56' E 004°12'2 4.7
2018-Apr-27 08:00N 51°57' E 004°09'2 4.9
2018-Apr-27 07:30N 51°59' E 004°06'2 4.5
2018-Apr-27 07:00N 51°60' E 004°03'3 5.5
2018-Apr-27 06:31N 52°02' E 004°03'2 3.9
2018-Apr-27 06:00N 52°04' E 004°04'1 1.3
2018-Apr-27 05:30N 52°04' E 004°05'1 1.4
2018-Apr-27 05:00N 52°04' E 004°06'1 1.6
2018-Apr-27 04:30N 52°05' E 004°07'1 1.3
2018-Apr-27 04:00N 52°05' E 004°08'0 0.4
2018-Apr-27 03:30N 52°05' E 004°08'2 3.6
2018-Apr-27 03:00N 52°05' E 004°05'2 4.1
2018-Apr-27 02:30N 52°05' E 004°02'2 3.9
2018-Apr-27 02:00N 52°06' E 003°59'2 4.0
2018-Apr-27 01:30N 52°06' E 003°56'2 4.0
2018-Apr-27 01:00N 52°06' E 003°52'2 4.0
2018-Apr-27 00:30N 52°06' E 003°49'2 4.2
2018-Apr-27 00:00N 52°06' E 003°46'2 4.4
2018-Apr-26 23:30N 52°06' E 003°42'2 4.2
2018-Apr-26 23:00N 52°06' E 003°39'2 4.4
2018-Apr-26 22:29N 52°06' E 003°35'2 4.8
2018-Apr-26 22:00N 52°07' E 003°32'6 3.8
2018-Apr-26 20:33N 52°11' E 003°24'0 1.6
2018-Apr-26 20:15N 52°11' E 003°25'1 3.5
2018-Apr-26 20:00N 52°10' E 003°26'2 3.9
2018-Apr-26 19:30N 52°08' E 003°26'2 3.5
2018-Apr-26 18:57N 52°06' E 003°26'1 3.0
2018-Apr-26 18:29N 52°05' E 003°25'2 3.0
2018-Apr-26 17:59N 52°03' E 003°24'2 3.3
2018-Apr-26 17:30N 52°02' E 003°24'3 4.0
2018-Apr-26 16:51N 51°59' E 003°22'5 4.3
2018-Apr-26 15:44N 51°54' E 003°23'1 4.9
2018-Apr-26 15:28N 51°53' E 003°22'3 5.3
2018-Apr-26 14:59N 51°51' E 003°20'2 4.6
2018-Apr-26 14:28N 51°49' E 003°18'2 4.5
2018-Apr-26 13:55N 51°46' E 003°17'2 5.1
2018-Apr-26 13:27N 51°44' E 003°16'2 5.1
2018-Apr-26 13:00N 51°42' E 003°15'3 5.5
2018-Apr-26 12:29N 51°39' E 003°13'3 5.9
2018-Apr-26 12:00N 51°37' E 003°12'3 6.7
2018-Apr-26 11:30N 51°33' E 003°10'4 7.0
2018-Apr-26 10:59N 51°30' E 003°07'3 6.6
2018-Apr-26 10:29N 51°28' E 003°03'3 6.2
2018-Apr-26 09:59N 51°26' E 003°00'3 6.2
2018-Apr-26 09:30N 51°23' E 002°57'3 6.1
2018-Apr-26 09:00N 51°21' E 002°54'1 2.2
2018-Apr-26 08:30N 51°20' E 002°54'2 4.8
2018-Apr-26 08:00N 51°18' E 002°52'2 4.0
2018-Apr-26 07:30N 51°16' E 002°53'2 3.1
2018-Apr-26 07:00N 51°15' E 002°55'1 2.4
2018-Apr-26 06:30N 51°14' E 002°56'0 0.2
2018-Apr-26 06:00N 51°13' E 002°56'0 0.0
2018-Apr-26 05:30N 51°13' E 002°56'0 0.0
2018-Apr-26 05:00N 51°13' E 002°56'0 0.0
2018-Apr-26 04:30N 51°13' E 002°56'0 0.0
2018-Apr-26 04:00N 51°13' E 002°56'0 0.0
2018-Apr-26 03:24N 51°13' E 002°56'0 0.0
2018-Apr-26 03:00N 51°13' E 002°56'0 0.0
2018-Apr-26 02:30N 51°13' E 002°56'0 0.0
2018-Apr-26 02:00N 51°13' E 002°56'0 0.0
2018-Apr-26 01:27N 51°13' E 002°56'0 0.0
2018-Apr-26 01:00N 51°13' E 002°56'0 0.0
2018-Apr-26 00:30N 51°13' E 002°56'0 0.0
2018-Apr-26 00:00N 51°13' E 002°56'0 0.0
2018-Apr-25 23:30N 51°13' E 002°56'0 0.0
2018-Apr-25 22:57N 51°13' E 002°56'0 0.0
2018-Apr-25 22:30N 51°13' E 002°56'0 0.0
2018-Apr-25 22:00N 51°13' E 002°56'0 0.0
2018-Apr-25 21:27N 51°13' E 002°56'0 0.0
2018-Apr-25 21:00N 51°13' E 002°56'0 0.0
2018-Apr-25 20:29N 51°13' E 002°56'0 0.0
2018-Apr-25 20:00N 51°13' E 002°56'0 0.0
2018-Apr-25 19:29N 51°13' E 002°56'0 0.0
2018-Apr-25 18:59N 51°13' E 002°56'0 0.0
2018-Apr-25 18:29N 51°13' E 002°56'0 0.0
2018-Apr-25 17:59N 51°13' E 002°56'0 0.0
2018-Apr-25 17:29N 51°13' E 002°56'0 0.0
2018-Apr-25 16:59N 51°13' E 002°56'0 0.0
2018-Apr-25 16:29N 51°13' E 002°56'0 0.0
2018-Apr-25 15:59N 51°13' E 002°56'0 0.0
2018-Apr-25 15:29N 51°13' E 002°56'0 0.0
2018-Apr-25 14:59N 51°13' E 002°56'0 0.0
2018-Apr-25 14:29N 51°13' E 002°56'0 0.0
2018-Apr-25 13:59N 51°13' E 002°56'0 0.0
2018-Apr-25 13:29N 51°13' E 002°56'0 0.0
2018-Apr-25 12:59N 51°13' E 002°56'0 0.0
2018-Apr-25 12:29N 51°13' E 002°56'0 0.0
2018-Apr-25 11:59N 51°13' E 002°56'0 0.0
2018-Apr-25 11:30N 51°13' E 002°56'0 0.7
2018-Apr-25 11:01N 51°14' E 002°56'2 4.4
2018-Apr-25 10:31N 51°16' E 002°54'2 4.3
2018-Apr-25 10:00N 51°17' E 002°52'1 2.3
2018-Apr-25 09:31N 51°18' E 002°51'3 6.8
2018-Apr-25 09:00N 51°22' E 002°49'3 6.7
2018-Apr-25 08:29N 51°25' E 002°48'3 6.6
2018-Apr-25 07:59N 51°28' E 002°46'3 6.4
2018-Apr-25 07:29N 51°31' E 002°44'3 6.2
2018-Apr-25 07:00N 51°34' E 002°42'3 5.9
2018-Apr-25 06:30N 51°37' E 002°41'3 6.2
2018-Apr-25 05:58N 51°40' E 002°39'4 6.9
2018-Apr-25 05:23N 51°44' E 002°38'3 6.6
2018-Apr-25 04:53N 51°46' E 002°35'4 6.6
2018-Apr-25 04:21N 51°49' E 002°31'43 3.3
2018-Apr-24 15:17N 52°32' E 002°19'4 7.5
2018-Apr-24 14:43N 52°34' E 002°13'2 7.5
2018-Apr-24 14:31N 52°35' E 002°12'4 7.8
2018-Apr-24 14:01N 52°39' E 002°08'4 7.7
2018-Apr-24 13:30N 52°41' E 002°04'3 6.6
2018-Apr-24 13:00N 52°44' E 002°00'3 5.3
2018-Apr-24 12:31N 52°46' E 001°57'1 2.4
2018-Apr-24 12:00N 52°47' E 001°56'2 5.0
2018-Apr-24 11:31N 52°49' E 001°54'2 3.5
2018-Apr-24 11:00N 52°51' E 001°53'2 3.7
2018-Apr-24 10:30N 52°52' E 001°52'2 3.6
2018-Apr-24 10:00N 52°54' E 001°53'2 3.5
2018-Apr-24 09:31N 52°56' E 001°53'1 1.2
2018-Apr-24 09:01N 52°57' E 001°53'1 2.3
2018-Apr-24 08:30N 52°58' E 001°51'1 2.5
2018-Apr-24 08:00N 52°58' E 001°50'1 1.9
2018-Apr-24 07:31N 52°59' E 001°50'1 2.9
2018-Apr-24 07:01N 53°01' E 001°49'2 3.8
2018-Apr-24 06:30N 53°03' E 001°48'1 1.3
2018-Apr-24 06:01N 53°03' E 001°49'2 4.8
2018-Apr-24 05:31N 53°01' E 001°51'2 3.7
2018-Apr-24 05:01N 53°00' E 001°53'2 4.3
2018-Apr-24 04:31N 52°59' E 001°56'3 5.1
2018-Apr-24 04:01N 52°57' E 001°59'2 4.7
2018-Apr-24 03:30N 52°55' E 002°02'3 5.0
2018-Apr-24 03:00N 52°53' E 002°05'3 5.1
2018-Apr-24 02:31N 52°52' E 002°08'2 3.3
2018-Apr-24 02:01N 52°50' E 002°10'2 4.0
2018-Apr-24 01:26N 52°49' E 002°12'41 7.7
2018-Apr-23 20:08N 52°25' E 003°06'1 8.2
2018-Apr-23 19:59N 52°24' E 003°08'4 8.4
2018-Apr-23 19:30N 52°22' E 003°14'4 8.2
2018-Apr-23 18:58N 52°19' E 003°19'6 7.9
2018-Apr-23 18:16N 52°14' E 003°23'2 6.4
2018-Apr-23 18:00N 52°13' E 003°26'3 6.4
2018-Apr-23 17:30N 52°11' E 003°30'3 6.1
2018-Apr-23 17:01N 52°09' E 003°33'3 6.8
2018-Apr-23 16:30N 52°07' E 003°38'3 6.6
2018-Apr-23 16:00N 52°06' E 003°43'4 7.2
2018-Apr-23 15:31N 52°04' E 003°48'3 6.9
2018-Apr-23 15:01N 52°04' E 003°54'3 6.0
2018-Apr-23 14:31N 52°03' E 003°58'2 3.6
2018-Apr-23 14:01N 52°02' E 004°01'1 2.1
2018-Apr-23 13:30N 52°02' E 004°03'3 5.3
2018-Apr-23 13:01N 51°59' E 004°04'4 7.4
2018-Apr-23 12:30N 51°58' E 004°09'4 8.0
2018-Apr-23 12:01N 51°55' E 004°14'4 7.1
2018-Apr-23 11:31N 51°54' E 004°19'3 6.1
2018-Apr-23 11:00N 51°54' E 004°24'2 3.9
2018-Apr-23 10:29N 51°54' E 004°28'0 0.0
2018-Apr-23 09:58N 51°54' E 004°28'0 0.0
2018-Apr-23 09:29N 51°54' E 004°28'0 0.0
2018-Apr-23 08:59N 51°54' E 004°28'0 0.0
2018-Apr-23 08:29N 51°54' E 004°28'0 0.0
2018-Apr-23 07:59N 51°54' E 004°28'0 0.0
2018-Apr-23 07:29N 51°54' E 004°28'0 0.0
2018-Apr-23 06:59N 51°54' E 004°28'0 0.0
2018-Apr-23 06:28N 51°54' E 004°28'0 0.0
2018-Apr-23 05:58N 51°54' E 004°28'0 0.0
2018-Apr-23 05:29N 51°54' E 004°28'0 0.0
2018-Apr-23 04:53N 51°54' E 004°28'0 0.0
2018-Apr-23 04:28N 51°54' E 004°28'0 0.0
2018-Apr-23 03:59N 51°54' E 004°28'0 0.0
2018-Apr-23 03:28N 51°54' E 004°28'0 0.0
2018-Apr-23 02:58N 51°54' E 004°28'0 0.0
2018-Apr-23 02:28N 51°54' E 004°28'0 0.0
2018-Apr-23 01:58N 51°54' E 004°28'0 0.0
2018-Apr-23 01:31N 51°54' E 004°28'0 0.0
2018-Apr-23 01:01N 51°54' E 004°28'0 0.0
2018-Apr-23 00:30N 51°54' E 004°28'0 0.0
2018-Apr-23 00:00N 51°54' E 004°28'0 0.0
2018-Apr-22 23:30N 51°54' E 004°28'0 0.0
2018-Apr-22 23:00N 51°54' E 004°28'0 0.0
2018-Apr-22 22:30N 51°54' E 004°28'0 0.0
2018-Apr-22 22:00N 51°54' E 004°28'0 0.0
2018-Apr-22 21:30N 51°54' E 004°28'0 0.0
2018-Apr-22 21:00N 51°54' E 004°28'0 0.0
2018-Apr-22 20:30N 51°54' E 004°28'0 0.0
2018-Apr-22 20:00N 51°54' E 004°28'0 0.0
2018-Apr-22 19:30N 51°54' E 004°28'0 0.0
2018-Apr-22 18:55N 51°54' E 004°28'0 0.0
2018-Apr-22 18:30N 51°54' E 004°28'0 0.0
2018-Apr-22 17:58N 51°54' E 004°28'0 0.0
2018-Apr-22 17:27N 51°54' E 004°28'0 0.0
2018-Apr-22 17:00N 51°54' E 004°28'0 0.0
2018-Apr-22 16:27N 51°54' E 004°28'0 0.0
2018-Apr-22 16:00N 51°54' E 004°28'0 0.0
2018-Apr-22 15:30N 51°54' E 004°28'0 0.0
2018-Apr-22 14:58N 51°54' E 004°28'0 0.0
2018-Apr-22 14:28N 51°54' E 004°28'0 0.0
2018-Apr-22 14:00N 51°54' E 004°28'0 0.0
2018-Apr-22 13:30N 51°54' E 004°28'0 0.0
2018-Apr-22 13:00N 51°54' E 004°28'0 0.0
2018-Apr-22 12:30N 51°54' E 004°28'0 0.0
2018-Apr-22 12:00N 51°54' E 004°28'0 0.0
2018-Apr-22 11:30N 51°54' E 004°28'0 0.0
2018-Apr-22 11:00N 51°54' E 004°28'0 0.0
2018-Apr-22 10:30N 51°54' E 004°28'2 3.3
2018-Apr-22 10:00N 51°54' E 004°25'2 4.8
2018-Apr-22 09:30N 51°54' E 004°21'1 1.8
2018-Apr-22 09:00N 51°54' E 004°23'3 5.9
2018-Apr-22 08:30N 51°54' E 004°27'0 0.3
2018-Apr-22 07:59N 51°54' E 004°28'0 0.0
2018-Apr-22 07:30N 51°54' E 004°28'0 0.0
2018-Apr-22 06:59N 51°54' E 004°28'0 0.0
2018-Apr-22 06:27N 51°54' E 004°28'0 0.1
2018-Apr-22 05:59N 51°54' E 004°28'0 0.0
2018-Apr-22 05:29N 51°54' E 004°28'0 0.0
2018-Apr-22 04:59N 51°54' E 004°28'0 0.0
2018-Apr-22 04:29N 51°54' E 004°28'0 0.0
2018-Apr-22 03:59N 51°54' E 004°28'0 0.0
2018-Apr-22 03:29N 51°54' E 004°28'0 0.0
2018-Apr-22 02:59N 51°54' E 004°28'0 0.0
2018-Apr-22 02:29N 51°54' E 004°28'0 0.0
2018-Apr-22 01:59N 51°54' E 004°28'0 0.0
2018-Apr-22 01:29N 51°54' E 004°28'0 0.0
2018-Apr-22 00:59N 51°54' E 004°28'0 0.0
2018-Apr-22 00:26N 51°54' E 004°28'0 0.0
2018-Apr-21 23:59N 51°54' E 004°28'0 0.0
2018-Apr-21 23:29N 51°54' E 004°28'0 0.0
2018-Apr-21 22:59N 51°54' E 004°28'0 0.0
2018-Apr-21 22:29N 51°54' E 004°28'0 0.0
2018-Apr-21 21:59N 51°54' E 004°28'0 0.0
2018-Apr-21 21:30N 51°54' E 004°28'0 0.0
2018-Apr-21 20:59N 51°54' E 004°28'0 0.0
2018-Apr-21 20:29N 51°54' E 004°28'0 0.0
2018-Apr-21 19:59N 51°54' E 004°28'0 0.0
2018-Apr-21 19:27N 51°54' E 004°28'0 0.0
2018-Apr-21 18:59N 51°54' E 004°28'0 0.0
2018-Apr-21 18:29N 51°54' E 004°28'0 0.0
2018-Apr-21 17:59N 51°54' E 004°28'0 0.0
2018-Apr-21 17:29N 51°54' E 004°28'0 0.0
2018-Apr-21 16:59N 51°54' E 004°28'0 0.0
2018-Apr-21 16:29N 51°54' E 004°28'0 0.0
2018-Apr-21 15:59N 51°54' E 004°28'0 0.0
2018-Apr-21 15:29N 51°54' E 004°28'0 0.0
2018-Apr-21 14:59N 51°54' E 004°28'0 0.0
2018-Apr-21 14:29N 51°54' E 004°28'0 0.1
2018-Apr-21 14:00N 51°54' E 004°28'2 4.6
2018-Apr-21 13:30N 51°54' E 004°24'3 5.2
2018-Apr-21 13:00N 51°54' E 004°20'3 5.3
2018-Apr-21 12:30N 51°54' E 004°16'3 5.1
2018-Apr-21 12:00N 51°56' E 004°12'2 4.6
2018-Apr-21 11:30N 51°57' E 004°09'2 4.0
2018-Apr-21 11:00N 51°59' E 004°07'2 4.2
2018-Apr-21 10:30N 51°59' E 004°04'3 5.9
2018-Apr-21 10:00N 52°02' E 004°04'4 8.0
2018-Apr-21 09:30N 52°06' E 004°05'2 4.3
2018-Apr-21 09:01N 52°08' E 004°03'1 2.9
2018-Apr-21 08:30N 52°09' E 004°01'1 2.7
2018-Apr-21 08:00N 52°10' E 004°00'1 2.4
2018-Apr-21 07:30N 52°11' E 003°59'1 2.2
2018-Apr-21 07:00N 52°12' E 003°58'1 1.7
2018-Apr-21 06:30N 52°13' E 003°57'1 1.5
2018-Apr-21 06:00N 52°13' E 003°56'0 0.8
2018-Apr-21 05:30N 52°13' E 003°56'0 0.6
2018-Apr-21 05:00N 52°13' E 003°56'1 1.0
2018-Apr-21 04:30N 52°13' E 003°57'1 1.5
2018-Apr-21 04:00N 52°14' E 003°58'1 1.9
2018-Apr-21 03:30N 52°14' E 003°60'2 3.1
2018-Apr-21 03:00N 52°15' E 004°01'2 3.8
2018-Apr-21 02:30N 52°16' E 004°04'2 3.6
2018-Apr-21 02:00N 52°18' E 004°06'2 3.0
2018-Apr-21 01:30N 52°19' E 004°08'2 3.6
2018-Apr-21 01:00N 52°20' E 004°10'2 4.0
2018-Apr-21 00:30N 52°21' E 004°12'2 4.1
2018-Apr-21 00:00N 52°23' E 004°14'2 3.7
2018-Apr-20 23:30N 52°24' E 004°16'2 4.0
2018-Apr-20 23:00N 52°26' E 004°19'2 4.7
2018-Apr-20 22:30N 52°28' E 004°21'2 4.4
2018-Apr-20 22:00N 52°30' E 004°23'1 2.5
2018-Apr-20 21:30N 52°31' E 004°24'1 1.6
2018-Apr-20 21:00N 52°31' E 004°24'1 2.5
2018-Apr-20 20:30N 52°32' E 004°25'1 2.3
2018-Apr-20 20:00N 52°33' E 004°26'1 2.1
2018-Apr-20 19:31N 52°34' E 004°27'1 2.0
2018-Apr-20 19:00N 52°35' E 004°29'2 3.2
2018-Apr-20 18:30N 52°36' E 004°29'2 3.0
2018-Apr-20 18:00N 52°38' E 004°29'1 2.9
2018-Apr-20 17:30N 52°39' E 004°29'2 3.4
2018-Apr-20 17:00N 52°41' E 004°28'2 4.0
2018-Apr-20 16:30N 52°43' E 004°28'2 4.5
2018-Apr-20 16:00N 52°45' E 004°26'3 5.0
2018-Apr-20 15:30N 52°47' E 004°25'3 5.2
2018-Apr-20 15:00N 52°50' E 004°25'3 5.5
2018-Apr-20 14:30N 52°53' E 004°26'3 5.5
2018-Apr-20 14:00N 52°55' E 004°29'3 5.4
2018-Apr-20 13:30N 52°57' E 004°32'3 5.4
2018-Apr-20 13:00N 52°59' E 004°34'3 5.3
2018-Apr-20 12:30N 53°02' E 004°35'3 5.0
2018-Apr-20 12:00N 53°04' E 004°37'2 4.9
2018-Apr-20 11:30N 53°06' E 004°39'3 5.5
2018-Apr-20 10:59N 53°09' E 004°41'3 5.5
2018-Apr-20 10:30N 53°11' E 004°43'3 5.2
2018-Apr-20 10:00N 53°13' E 004°45'3 5.1
2018-Apr-20 09:30N 53°15' E 004°49'2 4.8
2018-Apr-20 09:00N 53°16' E 004°52'2 4.7
2018-Apr-20 08:30N 53°18' E 004°55'1 1.3
2018-Apr-20 08:00N 53°18' E 004°55'0 0.3
2018-Apr-20 07:30N 53°18' E 004°55'2 4.0
2018-Apr-20 07:00N 53°19' E 004°58'2 3.4
2018-Apr-20 06:30N 53°19' E 005°01'2 3.6
2018-Apr-20 06:00N 53°19' E 005°04'3 5.5
2018-Apr-20 05:30N 53°19' E 005°08'3 5.8
2018-Apr-20 05:00N 53°17' E 005°10'3 6.2
2018-Apr-20 04:30N 53°14' E 005°12'4 7.4
2018-Apr-20 04:01N 53°13' E 005°18'3 6.4
2018-Apr-20 03:30N 53°11' E 005°23'1 2.7
2018-Apr-20 03:00N 53°11' E 005°25'0 0.0
2018-Apr-20 02:30N 53°11' E 005°25'0 0.0
2018-Apr-20 02:00N 53°11' E 005°25'0 0.0
2018-Apr-20 01:29N 53°11' E 005°25'0 0.0
2018-Apr-20 00:59N 53°11' E 005°25'0 0.0
2018-Apr-20 00:29N 53°11' E 005°25'0 0.0
2018-Apr-19 23:59N 53°11' E 005°25'0 0.0
2018-Apr-19 23:29N 53°11' E 005°25'0 0.0
2018-Apr-19 22:59N 53°11' E 005°25'0 0.0
2018-Apr-19 22:29N 53°11' E 005°25'0 0.0
2018-Apr-19 21:59N 53°11' E 005°25'0 0.0
2018-Apr-19 21:29N 53°11' E 005°25'0 0.0
2018-Apr-19 20:59N 53°11' E 005°25'0 0.0
2018-Apr-19 20:29N 53°11' E 005°25'0 0.0
2018-Apr-19 19:59N 53°11' E 005°25'0 0.0
2018-Apr-19 19:29N 53°11' E 005°25'0 0.0
2018-Apr-19 18:59N 53°11' E 005°25'0 0.0
2018-Apr-19 18:29N 53°11' E 005°25'0 0.0
2018-Apr-19 17:59N 53°11' E 005°25'0 0.0
2018-Apr-19 17:29N 53°11' E 005°25'0 0.0
2018-Apr-19 16:59N 53°11' E 005°25'0 0.0
2018-Apr-19 16:29N 53°11' E 005°25'0 0.0
2018-Apr-19 15:59N 53°11' E 005°25'0 0.0
2018-Apr-19 15:29N 53°11' E 005°25'0 0.0
2018-Apr-19 14:59N 53°11' E 005°25'0 0.0
2018-Apr-19 14:29N 53°11' E 005°25'0 0.0
2018-Apr-19 14:01N 53°11' E 005°25'2 4.6
2018-Apr-19 13:30N 53°11' E 005°21'2 4.8
2018-Apr-19 13:00N 53°13' E 005°18'2 5.0
2018-Apr-19 12:30N 53°14' E 005°14'3 5.0
2018-Apr-19 12:00N 53°15' E 005°10'3 5.9
2018-Apr-19 11:30N 53°18' E 005°10'3 5.5
2018-Apr-19 11:00N 53°19' E 005°07'3 6.8
2018-Apr-19 10:30N 53°19' E 005°01'3 5.4
2018-Apr-19 10:00N 53°18' E 004°57'2 3.1
2018-Apr-19 09:30N 53°17' E 004°55'2 3.7
2018-Apr-19 09:01N 53°17' E 004°52'2 4.2
2018-Apr-19 08:30N 53°16' E 004°49'3 6.8
2018-Apr-19 08:00N 53°18' E 004°53'3 6.6
2018-Apr-19 07:30N 53°21' E 004°56'3 5.8
2018-Apr-19 07:00N 53°23' E 004°60'2 3.9
2018-Apr-19 06:30N 53°24' E 005°02'2 3.1
2018-Apr-19 06:00N 53°25' E 005°04'1 1.6
2018-Apr-19 05:30N 53°25' E 005°03'3 5.9
2018-Apr-19 05:00N 53°23' E 004°59'3 5.8
2018-Apr-19 04:30N 53°20' E 004°56'3 5.2
2018-Apr-19 04:00N 53°18' E 004°53'3 5.8
2018-Apr-19 03:30N 53°17' E 004°49'2 4.5
2018-Apr-19 03:00N 53°15' E 004°46'2 4.1
2018-Apr-19 02:29N 53°14' E 004°44'2 3.7
2018-Apr-19 01:59N 53°13' E 004°42'2 3.5
2018-Apr-19 01:30N 53°11' E 004°40'2 4.3
2018-Apr-19 01:00N 53°09' E 004°38'2 4.1
2018-Apr-19 00:30N 53°07' E 004°37'2 3.7
2018-Apr-19 00:00N 53°06' E 004°36'2 3.9
2018-Apr-18 23:30N 53°04' E 004°35'3 5.2
2018-Apr-18 23:00N 53°02' E 004°33'3 5.6
2018-Apr-18 22:30N 52°59' E 004°30'2 4.8
2018-Apr-18 22:00N 52°57' E 004°29'3 5.8
2018-Apr-18 21:30N 52°54' E 004°28'3 5.5
2018-Apr-18 21:00N 52°51' E 004°28'3 5.5
2018-Apr-18 20:30N 52°49' E 004°27'2 4.8
2018-Apr-18 20:00N 52°46' E 004°27'2 3.7
2018-Apr-18 19:30N 52°44' E 004°26'2 3.8
2018-Apr-18 19:00N 52°43' E 004°25'2 4.4
2018-Apr-18 18:30N 52°41' E 004°24'2 4.8
2018-Apr-18 18:00N 52°39' E 004°22'2 4.8
2018-Apr-18 17:30N 52°36' E 004°21'3 5.8
2018-Apr-18 17:01N 52°33' E 004°21'3 6.5
2018-Apr-18 16:30N 52°30' E 004°22'3 5.2
2018-Apr-18 16:01N 52°28' E 004°20'4 7.2
2018-Apr-18 15:30N 52°24' E 004°18'3 6.9
2018-Apr-18 15:00N 52°22' E 004°14'3 6.7
2018-Apr-18 14:31N 52°18' E 004°13'3 5.9
2018-Apr-18 14:00N 52°16' E 004°10'3 5.2
2018-Apr-18 13:30N 52°14' E 004°08'3 5.2
2018-Apr-18 13:00N 52°11' E 004°06'0 0.6
2018-Apr-18 12:30N 52°11' E 004°05'1 1.8
2018-Apr-18 12:00N 52°11' E 004°04'3 5.3
2018-Apr-18 11:30N 52°08' E 004°02'3 5.2
2018-Apr-18 11:01N 52°06' E 004°03'2 4.4
2018-Apr-18 10:30N 52°04' E 004°02'1 2.1
2018-Apr-18 10:00N 52°03' E 004°02'1 1.6
2018-Apr-18 09:30N 52°02' E 004°02'3 5.5
2018-Apr-18 09:00N 51°59' E 004°04'4 8.5
2018-Apr-18 08:30N 51°57' E 004°10'4 8.8
2018-Apr-18 08:00N 51°55' E 004°15'4 7.9
2018-Apr-18 07:30N 51°54' E 004°22'4 7.2
2018-Apr-18 07:00N 51°54' E 004°28'0 0.1
2018-Apr-18 06:25N 51°54' E 004°28'0 0.0
2018-Apr-18 05:59N 51°54' E 004°28'0 0.0
2018-Apr-18 05:28N 51°54' E 004°28'0 0.0
2018-Apr-18 04:59N 51°54' E 004°28'0 0.0
2018-Apr-18 04:29N 51°54' E 004°28'0 0.0
2018-Apr-18 03:58N 51°54' E 004°28'0 0.0
2018-Apr-18 03:28N 51°54' E 004°28'0 0.0
2018-Apr-18 02:58N 51°54' E 004°28'0 0.0
2018-Apr-18 02:28N 51°54' E 004°28'0 0.0
2018-Apr-18 01:58N 51°54' E 004°28'0 0.0
2018-Apr-18 01:28N 51°54' E 004°28'0 0.0
2018-Apr-18 00:55N 51°54' E 004°28'0 0.0
2018-Apr-18 00:28N 51°54' E 004°28'0 0.0
2018-Apr-17 23:58N 51°54' E 004°28'0 0.0
2018-Apr-17 23:28N 51°54' E 004°28'0 0.1
2018-Apr-17 22:58N 51°54' E 004°28'0 0.0
2018-Apr-17 22:28N 51°54' E 004°28'0 0.0
2018-Apr-17 21:58N 51°54' E 004°28'0 0.0
2018-Apr-17 21:28N 51°54' E 004°28'0 0.0
2018-Apr-17 20:58N 51°54' E 004°28'0 0.0
2018-Apr-17 20:28N 51°54' E 004°28'0 0.0
2018-Apr-17 19:58N 51°54' E 004°28'0 0.0
2018-Apr-17 19:28N 51°54' E 004°28'0 0.0
2018-Apr-17 18:58N 51°54' E 004°28'0 0.0
2018-Apr-17 18:28N 51°54' E 004°28'0 0.0
2018-Apr-17 17:58N 51°54' E 004°28'0 0.0
2018-Apr-17 17:28N 51°54' E 004°28'0 0.0
2018-Apr-17 16:58N 51°54' E 004°28'0 0.0
2018-Apr-17 16:28N 51°54' E 004°28'0 0.0
2018-Apr-17 15:58N 51°54' E 004°28'0 0.0
2018-Apr-17 15:28N 51°54' E 004°28'0 0.0
2018-Apr-17 14:58N 51°54' E 004°28'0 0.0
2018-Apr-17 14:28N 51°54' E 004°28'0 0.0
2018-Apr-17 13:58N 51°54' E 004°28'0 0.0
2018-Apr-17 13:30N 51°54' E 004°28'3 5.4
2018-Apr-17 13:00N 51°54' E 004°23'3 6.7
2018-Apr-17 12:30N 51°54' E 004°18'3 5.6
2018-Apr-17 12:00N 51°55' E 004°14'3 5.5
2018-Apr-17 11:30N 51°57' E 004°11'3 5.0
2018-Apr-17 11:00N 51°58' E 004°07'2 3.6
2018-Apr-17 10:30N 51°59' E 004°05'2 3.4
2018-Apr-17 10:00N 51°60' E 004°02'1 2.8
2018-Apr-17 09:30N 52°01' E 004°01'1 2.7
2018-Apr-17 09:00N 52°02' E 003°60'  

Dump ship's entire track history